Time;durP1;ratioP1;P1;durP2;ratioP2;P2;SDS_P1;SDS_P2;PMS_P1;PMS_P2;Temp;Humidity;BMP_temperature;BMP_pressure;BME280_temperature;BME280_humidity;BME280_pressure;Samples;Min_cycle;Max_cycle;Signal;HPM_P1;HPM_P2
2024/01/27 00:03:47;;;;;;;;;;;3.30;99.90;;;;;;8463234;28;19927;-73
2024/01/27 00:07:49;;;;;;;;;;;3.30;99.90;;;;;;8463002;28;20321;-73
2024/01/27 00:11:50;;;;;;;;;;;3.20;99.90;;;;;;8458396;27;19924;-73
2024/01/27 00:15:54;;;;;;;;;;;3.20;99.90;;;;;;8463713;28;19984;-73
2024/01/27 00:19:56;;;;;;;;;;;3.20;99.90;;;;;;8436901;28;20298;-73
2024/01/27 00:24:00;;;;;;;;;;;3.10;99.90;;;;;;8460989;28;20014;-73
2024/01/27 00:28:02;;;;;;;;;;;3.00;99.90;;;;;;8437357;28;19928;-73
2024/01/27 00:32:04;;;;;;;;;;;3.00;99.90;;;;;;8460795;27;19969;-73
2024/01/27 00:36:06;;;;;;;;;;;3.00;99.90;;;;;;8446649;28;19924;-73
2024/01/27 00:40:09;;;;;;;;;;;3.00;99.90;;;;;;8437849;28;19931;-73
2024/01/27 00:44:11;;;;;;;;;;;2.90;99.90;;;;;;8455721;28;19975;-73
2024/01/27 00:48:31;;;;;;;;;;;2.80;99.90;;;;;;8443825;28;19927;-73
2024/01/27 00:52:32;;;;;;;;;;;2.80;99.90;;;;;;8442132;28;19924;-73
2024/01/27 00:56:34;;;;;;;;;;;2.80;99.90;;;;;;8461999;28;19924;-73
2024/01/27 01:00:36;;;;;;;;;;;2.80;99.90;;;;;;8459776;28;20194;-73
2024/01/27 01:04:38;;;;;;;;;;;2.80;99.90;;;;;;8461037;28;19928;-73
2024/01/27 01:08:39;;;;;;;;;;;2.70;99.90;;;;;;8443093;28;19975;-73
2024/01/27 01:12:41;;;;;;;;;;;2.70;99.90;;;;;;8458824;28;19928;-73
2024/01/27 01:16:43;;;;;;;;;;;2.70;99.90;;;;;;8467063;27;19928;-73
2024/01/27 01:20:44;;;;;;;;;;;2.70;99.90;;;;;;8441090;28;19927;-73
2024/01/27 01:24:46;;;;;;;;;;;2.60;99.90;;;;;;8452233;28;19928;-73
2024/01/27 01:28:48;;;;;;;;;;;2.50;99.90;;;;;;8454379;28;19966;-73
2024/01/27 01:32:50;;;;;;;;;;;2.50;99.90;;;;;;8460611;28;20435;-73
2024/01/27 01:41:55;;;;;;;;;;;2.30;99.90;;;;;;8454285;28;20005;-73
2024/01/27 01:45:57;;;;;;;;;;;2.30;99.90;;;;;;8437998;28;19924;-73
2024/01/27 01:49:59;;;;;;;;;;;2.30;99.90;;;;;;8458732;28;19953;-73
2024/01/27 01:54:01;;;;;;;;;;;2.30;99.90;;;;;;8458226;28;19946;-73
2024/01/27 01:58:03;;;;;;;;;;;2.40;99.90;;;;;;8437148;28;20371;-73
2024/01/27 02:02:04;;;;;;;;;;;2.40;99.90;;;;;;8459485;28;20030;-73
2024/01/27 02:06:06;;;;;;;;;;;2.50;99.90;;;;;;8431581;28;19928;-73
2024/01/27 02:10:12;;;;;;;;;;;2.50;99.90;;;;;;8439195;28;19923;-73
2024/01/27 02:14:14;;;;;;;;;;;2.50;99.90;;;;;;8455084;28;19928;-73
2024/01/27 02:23:19;;;;;;;;;;;2.40;99.90;;;;;;8454262;28;20394;-73
2024/01/27 02:27:21;;;;;;;;;;;2.40;99.90;;;;;;8429184;28;19924;-73
2024/01/27 02:31:23;;;;;;;;;;;2.40;99.90;;;;;;8458408;28;19939;-73
2024/01/27 02:35:24;;;;;;;;;;;2.30;99.90;;;;;;8459902;28;19923;-73
2024/01/27 02:39:26;;;;;;;;;;;2.20;99.90;;;;;;8454825;28;20436;-73
2024/01/27 02:43:28;;;;;;;;;;;2.20;99.90;;;;;;8445171;28;19924;-73
2024/01/27 02:47:30;;;;;;;;;;;2.20;99.90;;;;;;8437980;28;20429;-73
2024/01/27 02:51:31;;;;;;;;;;;2.10;99.90;;;;;;8458764;28;19932;-73
2024/01/27 02:55:33;;;;;;;;;;;2.00;99.90;;;;;;8469647;27;19946;-73
2024/01/27 02:59:35;;;;;;;;;;;1.90;99.90;;;;;;8439798;28;19931;-73
2024/01/27 03:03:37;;;;;;;;;;;1.80;99.90;;;;;;8456203;28;19931;-73
2024/01/27 03:07:38;;;;;;;;;;;1.70;99.90;;;;;;8439761;28;19973;-73
2024/01/27 03:11:40;;;;;;;;;;;1.60;99.90;;;;;;8457407;28;19946;-73
2024/01/27 03:15:43;;;;;;;;;;;1.60;99.90;;;;;;8450559;28;19923;-73
2024/01/27 03:19:44;;;;;;;;;;;1.50;99.90;;;;;;8456928;28;20409;-73
2024/01/27 03:23:49;;;;;;;;;;;1.40;99.90;;;;;;8457596;28;19947;-73
2024/01/27 03:27:51;;;;;;;;;;;1.30;99.90;;;;;;8458235;28;20003;-73
2024/01/27 03:31:53;;;;;;;;;;;1.30;99.90;;;;;;8452806;28;19924;-73
2024/01/27 03:35:55;;;;;;;;;;;1.20;99.90;;;;;;8455897;28;19966;-73
2024/01/27 03:39:57;;;;;;;;;;;1.20;99.90;;;;;;8454800;28;20663;-73
2024/01/27 03:43:58;;;;;;;;;;;1.10;99.90;;;;;;8445834;28;20367;-73
2024/01/27 03:48:00;;;;;;;;;;;1.00;99.90;;;;;;8450553;28;20021;-73
2024/01/27 03:52:02;;;;;;;;;;;1.00;99.90;;;;;;8436273;28;19932;-73
2024/01/27 03:56:04;;;;;;;;;;;1.00;99.90;;;;;;8438363;28;19931;-73
2024/01/27 04:00:06;;;;;;;;;;;1.00;99.90;;;;;;8451078;28;19924;-73
2024/01/27 04:04:08;;;;;;;;;;;1.00;99.90;;;;;;8448758;28;19970;-73
2024/01/27 04:08:10;;;;;;;;;;;0.90;99.90;;;;;;8459522;28;20618;-73
2024/01/27 04:12:11;;;;;;;;;;;0.90;99.90;;;;;;8458493;28;19924;-73
2024/01/27 04:21:17;;;;;;;;;;;0.90;99.90;;;;;;8462604;28;19926;-73
2024/01/27 04:25:18;;;;;;;;;;;0.80;99.90;;;;;;8456728;28;20040;-73
2024/01/27 04:29:20;;;;;;;;;;;0.80;99.90;;;;;;8454871;28;19924;-73
2024/01/27 04:33:22;;;;;;;;;;;0.80;99.90;;;;;;8441596;28;19924;-73
2024/01/27 04:37:23;;;;;;;;;;;0.80;99.90;;;;;;8454837;28;20463;-73
2024/01/27 04:41:25;;;;;;;;;;;0.70;99.90;;;;;;8460080;28;19924;-73
2024/01/27 04:45:27;;;;;;;;;;;0.70;99.90;;;;;;8460334;28;19958;-73
2024/01/27 04:49:29;;;;;;;;;;;0.70;99.90;;;;;;8455004;27;19970;-73
2024/01/27 04:53:30;;;;;;;;;;;0.70;99.90;;;;;;8442949;28;19974;-73
2024/01/27 04:57:32;;;;;;;;;;;0.70;99.90;;;;;;8458404;28;19931;-73
2024/01/27 05:01:34;;;;;;;;;;;0.60;99.90;;;;;;8439482;28;20429;-73
2024/01/27 05:05:36;;;;;;;;;;;0.60;99.90;;;;;;8459594;28;20386;-73
2024/01/27 05:09:39;;;;;;;;;;;0.60;99.90;;;;;;8455916;28;20204;-73
2024/01/27 05:13:41;;;;;;;;;;;0.60;99.90;;;;;;8440221;28;20286;-73
2024/01/27 05:17:43;;;;;;;;;;;0.50;99.90;;;;;;8441328;28;19924;-73
2024/01/27 05:21:45;;;;;;;;;;;0.50;99.90;;;;;;8458526;28;19927;-73
2024/01/27 05:25:46;;;;;;;;;;;0.50;99.90;;;;;;8454897;28;20394;-73
2024/01/27 05:29:48;;;;;;;;;;;0.50;99.90;;;;;;8452926;28;19978;-73
2024/01/27 05:33:50;;;;;;;;;;;0.50;99.90;;;;;;8459622;28;19928;-73
2024/01/27 05:37:51;;;;;;;;;;;0.50;99.90;;;;;;8460435;28;19927;-73
2024/01/27 05:41:53;;;;;;;;;;;0.40;99.90;;;;;;8438316;28;19967;-72
2024/01/27 05:45:55;;;;;;;;;;;0.40;99.90;;;;;;8435463;27;19931;-73
2024/01/27 05:49:57;;;;;;;;;;;0.40;99.90;;;;;;8451587;27;20298;-73
2024/01/27 05:53:59;;;;;;;;;;;0.40;99.90;;;;;;8455087;27;19981;-73
2024/01/27 05:58:01;;;;;;;;;;;0.40;99.90;;;;;;8454618;28;19938;-73
2024/01/27 06:02:03;;;;;;;;;;;0.40;99.90;;;;;;8435026;28;19938;-73
2024/01/27 06:06:04;;;;;;;;;;;0.30;99.90;;;;;;8455963;28;19938;-73
2024/01/27 06:10:07;;;;;;;;;;;0.40;99.90;;;;;;8438363;28;20406;-73
2024/01/27 06:14:09;;;;;;;;;;;0.30;99.90;;;;;;8427753;28;19974;-73
2024/01/27 06:18:11;;;;;;;;;;;0.30;99.90;;;;;;8441377;28;20678;-73
2024/01/27 06:22:13;;;;;;;;;;;0.30;99.90;;;;;;8436255;28;19931;-73
2024/01/27 06:26:15;;;;;;;;;;;0.20;99.90;;;;;;8450479;28;20351;-73
2024/01/27 06:30:17;;;;;;;;;;;0.20;99.90;;;;;;8434335;28;19928;-73
2024/01/27 06:34:20;;;;;;;;;;;0.20;99.90;;;;;;8458165;28;19939;-73
2024/01/27 06:38:22;;;;;;;;;;;0.20;99.90;;;;;;8442834;28;19938;-73
2024/01/27 06:42:24;;;;;;;;;;;0.20;99.90;;;;;;8455358;28;19939;-73
2024/01/27 06:46:25;;;;;;;;;;;0.20;99.90;;;;;;8459857;28;20056;-73
2024/01/27 06:50:27;;;;;;;;;;;0.20;99.90;;;;;;8437754;28;20386;-73
2024/01/27 06:54:29;;;;;;;;;;;0.20;99.90;;;;;;8396975;28;19933;-75
2024/01/27 06:58:31;;;;;;;;;;;0.10;99.90;;;;;;8386968;28;19972;-75
2024/01/27 07:02:32;;;;;;;;;;;0.10;99.90;;;;;;8385735;28;19980;-75
2024/01/27 07:06:34;;;;;;;;;;;0.10;99.90;;;;;;8389515;28;19924;-75
2024/01/27 07:10:36;;;;;;;;;;;0.00;99.90;;;;;;8386753;28;19932;-75
2024/01/27 07:14:37;;;;;;;;;;;0.00;99.90;;;;;;8389896;28;19928;-75
2024/01/27 07:18:39;;;;;;;;;;;0.00;99.90;;;;;;8392422;28;20458;-75
2024/01/27 07:22:41;;;;;;;;;;;0.00;99.90;;;;;;8386575;28;19928;-75
2024/01/27 07:26:43;;;;;;;;;;;0.00;99.90;;;;;;8382886;28;19928;-75
2024/01/27 07:30:45;;;;;;;;;;;-0.10;99.90;;;;;;8388867;28;19931;-75
2024/01/27 07:34:46;;;;;;;;;;;0.00;99.90;;;;;;8388405;28;20260;-75
2024/01/27 07:38:48;;;;;;;;;;;-0.10;99.90;;;;;;8388063;28;19924;-73
2024/01/27 07:42:50;;;;;;;;;;;0.00;99.90;;;;;;8388781;28;19964;-73
2024/01/27 07:46:52;;;;;;;;;;;0.00;99.90;;;;;;8388175;28;19925;-72
2024/01/27 07:50:54;;;;;;;;;;;0.00;99.90;;;;;;8394179;28;20446;-72
2024/01/27 07:54:55;;;;;;;;;;;0.00;99.90;;;;;;8393408;28;19939;-72
2024/01/27 07:58:57;;;;;;;;;;;0.10;99.90;;;;;;8394752;28;19998;-72
2024/01/27 08:02:59;;;;;;;;;;;0.10;99.90;;;;;;8391993;28;19978;-72
2024/01/27 08:07:06;;;;;;;;;;;0.10;99.90;;;;;;8390447;28;20587;-72
2024/01/27 08:11:07;;;;;;;;;;;0.20;99.90;;;;;;8397567;28;19939;-72
2024/01/27 08:15:09;;;;;;;;;;;0.20;99.90;;;;;;8393847;28;19932;-72
2024/01/27 08:19:11;;;;;;;;;;;0.30;99.90;;;;;;8394679;28;19928;-72
2024/01/27 08:23:13;;;;;;;;;;;0.30;99.90;;;;;;8392496;28;20042;-72
2024/01/27 08:27:15;;;;;;;;;;;0.40;99.90;;;;;;8383638;28;19924;-72
2024/01/27 08:31:16;;;;;;;;;;;0.50;99.90;;;;;;8391694;28;19982;-72
2024/01/27 08:35:18;;;;;;;;;;;0.60;99.90;;;;;;8393961;28;19935;-72
2024/01/27 08:39:20;;;;;;;;;;;0.70;99.90;;;;;;8392284;28;19971;-72
2024/01/27 08:43:21;;;;;;;;;;;0.80;99.90;;;;;;8393698;28;19929;-72
2024/01/27 08:47:23;;;;;;;;;;;0.90;99.90;;;;;;8390363;28;19924;-72
2024/01/27 08:51:25;;;;;;;;;;;1.00;99.90;;;;;;8392818;28;20355;-72
2024/01/27 08:55:26;;;;;;;;;;;1.10;99.90;;;;;;8397613;28;19924;-72
2024/01/27 08:59:28;;;;;;;;;;;1.20;99.90;;;;;;8391192;28;20248;-72
2024/01/27 09:03:30;;;;;;;;;;;1.30;99.90;;;;;;8393763;28;19990;-72
2024/01/27 09:07:33;;;;;;;;;;;1.40;99.90;;;;;;8393467;28;19971;-72
2024/01/27 09:11:48;;;;;;;;;;;1.70;99.90;;;;;;8392056;28;20030;-72
2024/01/27 09:15:50;;;;;;;;;;;1.90;99.90;;;;;;8391499;28;19958;-72
2024/01/27 09:19:52;;;;;;;;;;;2.20;99.90;;;;;;8390404;28;19924;-72
2024/01/27 09:23:54;;;;;;;;;;;2.40;99.90;;;;;;8392281;28;19932;-72
2024/01/27 09:27:56;;;;;;;;;;;2.80;99.90;;;;;;8385969;28;19985;-72
2024/01/27 09:31:58;;;;;;;;;;;3.20;99.90;;;;;;8388896;28;20280;-72
2024/01/27 09:36:00;;;;;;;;;;;3.70;99.90;;;;;;8393481;28;19948;-72
2024/01/27 09:40:02;;;;;;;;;;;4.20;99.90;;;;;;8390087;28;19983;-72
2024/01/27 09:44:04;;;;;;;;;;;4.50;99.90;;;;;;8393170;28;19932;-72
2024/01/27 09:48:07;;;;;;;;;;;4.80;99.90;;;;;;8391396;28;19925;-72
2024/01/27 09:52:09;;;;;;;;;;;4.90;99.90;;;;;;8389882;28;19935;-72
2024/01/27 09:56:17;;;;;;;;;;;4.90;99.90;;;;;;8454633;28;19923;-72
2024/01/27 10:05:23;;;;;;;;;;;5.00;99.90;;;;;;8457275;28;19927;-72
2024/01/27 10:09:25;;;;;;;;;;;5.20;99.90;;;;;;8452961;28;20284;-72
2024/01/27 10:13:27;;;;;;;;;;;5.30;99.90;;;;;;8441773;28;19971;-72
2024/01/27 10:17:34;;;;;;;;;;;5.40;99.90;;;;;;8458111;28;19932;-72
2024/01/27 10:21:36;;;;;;;;;;;5.60;99.90;;;;;;8457437;28;19931;-72
2024/01/27 10:25:38;;;;;;;;;;;5.80;99.90;;;;;;8448472;28;19923;-72
2024/01/27 10:29:40;;;;;;;;;;;5.90;99.90;;;;;;8448016;28;20035;-72
2024/01/27 10:33:50;;;;;;;;;;;6.00;99.90;;;;;;8438488;28;19935;-72
2024/01/27 10:37:53;;;;;;;;;;;6.10;99.90;;;;;;8459078;28;19978;-72
2024/01/27 10:42:01;;;;;;;;;;;6.20;99.90;;;;;;8457331;28;20367;-72
2024/01/27 10:46:05;;;;;;;;;;;6.30;99.90;;;;;;8455656;28;20324;-72
2024/01/27 10:50:08;;;;;;;;;;;6.50;99.90;;;;;;8450941;28;19924;-72
2024/01/27 10:54:13;;;;;;;;;;;6.70;99.90;;;;;;8457099;28;19932;-72
2024/01/27 10:58:15;;;;;;;;;;;7.10;99.90;;;;;;8434944;28;19978;-72
2024/01/27 11:02:18;;;;;;;;;;;7.40;99.90;;;;;;8452884;28;19927;-73
2024/01/27 11:06:21;;;;;;;;;;;7.70;99.90;;;;;;8455930;28;20386;-73
2024/01/27 11:10:23;;;;;;;;;;;8.10;99.90;;;;;;8453838;28;20271;-73
2024/01/27 11:14:25;;;;;;;;;;;8.70;99.90;;;;;;8427754;28;19931;-73
2024/01/27 11:18:27;;;;;;;;;;;9.20;99.90;;;;;;8441294;28;19930;-73
2024/01/27 11:22:30;;;;;;;;;;;9.60;99.90;;;;;;8424657;28;19947;-73
2024/01/27 11:26:32;;;;;;;;;;;10.00;99.90;;;;;;8445549;28;20363;-73
2024/01/27 11:30:39;;;;;;;;;;;10.30;99.90;;;;;;8446326;28;19928;-73
2024/01/27 11:34:42;;;;;;;;;;;10.60;99.90;;;;;;8430402;27;19932;-73
2024/01/27 11:38:44;;;;;;;;;;;10.90;99.90;;;;;;8428904;28;19927;-73
2024/01/27 11:42:55;;;;;;;;;;;11.00;99.90;;;;;;8448436;28;19924;-73
2024/01/27 11:46:57;;;;;;;;;;;11.10;99.90;;;;;;8439397;28;19928;-73
2024/01/27 11:51:05;;;;;;;;;;;11.10;99.90;;;;;;8446884;28;20375;-73
2024/01/27 11:55:07;;;;;;;;;;;11.30;99.90;;;;;;8443927;28;20351;-72
2024/01/27 11:59:09;;;;;;;;;;;11.30;99.90;;;;;;8458252;27;19932;-73
2024/01/27 12:03:11;;;;;;;;;;;11.40;99.90;;;;;;8451213;27;19935;-72
2024/01/27 12:07:14;;;;;;;;;;;11.60;99.90;;;;;;8438154;28;20398;-73
2024/01/27 12:11:16;;;;;;;;;;;11.70;99.90;;;;;;8455339;28;19932;-72
2024/01/27 12:15:21;;;;;;;;;;;12.00;99.90;;;;;;8456838;28;19962;-72
2024/01/27 12:19:23;;;;;;;;;;;12.20;99.90;;;;;;8454798;28;19938;-72
2024/01/27 12:23:25;;;;;;;;;;;12.30;99.90;;;;;;8451479;28;20009;-73
2024/01/27 12:27:27;;;;;;;;;;;12.10;99.90;;;;;;8428194;27;20371;-72
2024/01/27 12:31:29;;;;;;;;;;;11.80;99.90;;;;;;8426798;28;19932;-72
2024/01/27 12:35:31;;;;;;;;;;;11.70;99.90;;;;;;8419862;27;20295;-72
2024/01/27 12:39:33;;;;;;;;;;;12.00;99.90;;;;;;8424803;28;19936;-72
2024/01/27 12:43:34;;;;;;;;;;;12.00;99.90;;;;;;8426913;27;19932;-72
2024/01/27 12:47:36;;;;;;;;;;;12.10;99.90;;;;;;8408939;28;19931;-73
2024/01/27 12:51:38;;;;;;;;;;;12.00;99.90;;;;;;8428268;28;19938;-72
2024/01/27 12:55:43;;;;;;;;;;;11.80;99.90;;;;;;8415113;28;19932;-72
2024/01/27 12:59:45;;;;;;;;;;;11.30;99.90;;;;;;8430383;28;20379;-72
2024/01/27 13:03:47;;;;;;;;;;;11.10;99.90;;;;;;8424075;28;19962;-72
2024/01/27 13:07:49;;;;;;;;;;;11.20;99.90;;;;;;8430230;27;19936;-73
2024/01/27 13:11:50;;;;;;;;;;;11.40;99.90;;;;;;8431376;28;19947;-73
2024/01/27 13:15:52;;;;;;;;;;;11.50;99.90;;;;;;8418743;28;19932;-73
2024/01/27 13:19:54;;;;;;;;;;;11.60;99.90;;;;;;8414529;28;20049;-73
2024/01/27 13:23:56;;;;;;;;;;;11.60;99.90;;;;;;8422649;28;19959;-72
2024/01/27 13:27:58;;;;;;;;;;;11.40;99.90;;;;;;8431459;28;19932;-72
2024/01/27 13:32:01;;;;;;;;;;;11.20;99.90;;;;;;8440043;28;19970;-72
2024/01/27 13:36:03;;;;;;;;;;;10.90;99.90;;;;;;8427117;28;20561;-72
2024/01/27 13:40:07;;;;;;;;;;;10.60;99.90;;;;;;8440095;28;19932;-72
2024/01/27 13:44:09;;;;;;;;;;;10.30;99.90;;;;;;8424895;28;19969;-72
2024/01/27 13:48:11;;;;;;;;;;;10.10;99.90;;;;;;8442192;28;20261;-72
2024/01/27 13:52:12;;;;;;;;;;;9.90;99.90;;;;;;8438982;28;19997;-72
2024/01/27 13:56:14;;;;;;;;;;;9.80;99.90;;;;;;8429534;28;19971;-73
2024/01/27 14:00:16;;;;;;;;;;;9.60;99.90;;;;;;8427281;28;20676;-72
2024/01/27 14:04:18;;;;;;;;;;;9.40;99.90;;;;;;8429300;28;20699;-72
2024/01/27 14:08:20;;;;;;;;;;;9.30;99.90;;;;;;8426264;28;19928;-72
2024/01/27 14:12:21;;;;;;;;;;;9.20;99.90;;;;;;8422187;28;19985;-72
2024/01/27 14:16:24;;;;;;;;;;;9.20;99.90;;;;;;8404994;28;19924;-72
2024/01/27 14:20:28;;;;;;;;;;;9.30;99.90;;;;;;8430572;28;20022;-72
2024/01/27 14:24:32;;;;;;;;;;;9.30;99.90;;;;;;8429553;28;20295;-72
2024/01/27 14:28:35;;;;;;;;;;;9.30;99.90;;;;;;8405469;28;19997;-72
2024/01/27 14:32:36;;;;;;;;;;;9.20;99.90;;;;;;8427691;28;19928;-72
2024/01/27 14:36:38;;;;;;;;;;;9.20;99.90;;;;;;8429416;28;19939;-74
2024/01/27 14:40:40;;;;;;;;;;;9.10;99.90;;;;;;8415023;28;19978;-74
2024/01/27 14:44:42;;;;;;;;;;;9.00;99.90;;;;;;8412680;28;20283;-74
2024/01/27 14:48:45;;;;;;;;;;;9.00;99.90;;;;;;8415055;28;20402;-74
2024/01/27 14:52:47;;;;;;;;;;;9.00;99.90;;;;;;8425781;28;20386;-74
2024/01/27 14:56:49;;;;;;;;;;;9.10;99.90;;;;;;8425025;28;20009;-74
2024/01/27 15:00:53;;;;;;;;;;;9.20;99.90;;;;;;8421099;28;19938;-74
2024/01/27 15:04:55;;;;;;;;;;;9.30;99.90;;;;;;8423623;28;20008;-74
2024/01/27 15:08:57;;;;;;;;;;;9.30;99.90;;;;;;8419569;27;19932;-74
2024/01/27 15:12:59;;;;;;;;;;;9.40;99.90;;;;;;8421779;28;20393;-74
2024/01/27 15:17:01;;;;;;;;;;;9.60;99.90;;;;;;8432955;28;19931;-74
2024/01/27 15:21:03;;;;;;;;;;;9.60;99.90;;;;;;8436568;28;20397;-74
2024/01/27 15:25:05;;;;;;;;;;;9.60;99.90;;;;;;8417891;28;20340;-75
2024/01/27 15:29:07;;;;;;;;;;;9.70;99.90;;;;;;8406797;28;19931;-74
2024/01/27 15:33:09;;;;;;;;;;;9.70;99.90;;;;;;8407445;28;19996;-74
2024/01/27 15:37:11;;;;;;;;;;;9.80;99.90;;;;;;8422589;28;20355;-75
2024/01/27 15:41:12;;;;;;;;;;;9.80;99.90;;;;;;8424578;28;19936;-74
2024/01/27 15:45:14;;;;;;;;;;;9.60;99.90;;;;;;8417424;28;19928;-74
2024/01/27 15:49:18;;;;;;;;;;;9.40;99.90;;;;;;8424286;28;20038;-74
2024/01/27 15:53:20;;;;;;;;;;;9.10;99.90;;;;;;8421283;28;19924;-74
2024/01/27 15:57:22;;;;;;;;;;;9.00;99.90;;;;;;8390752;28;19924;-74
2024/01/27 16:01:24;;;;;;;;;;;8.80;99.90;;;;;;8424177;28;20447;-74
2024/01/27 16:05:25;;;;;;;;;;;8.70;99.90;;;;;;8424070;28;19924;-74
2024/01/27 16:09:27;;;;;;;;;;;8.60;99.90;;;;;;8425622;28;19924;-74
2024/01/27 16:18:34;;;;;;;;;;;8.30;99.90;;;;;;8425309;28;20382;-74
2024/01/27 16:22:37;;;;;;;;;;;8.10;99.90;;;;;;8432238;28;19977;-74
2024/01/27 16:26:39;;;;;;;;;;;8.00;99.90;;;;;;8435810;28;19981;-74
2024/01/27 16:30:40;;;;;;;;;;;7.90;99.90;;;;;;8432693;28;19932;-74
2024/01/27 16:34:42;;;;;;;;;;;7.70;99.90;;;;;;8431336;28;20315;-74
2024/01/27 16:38:44;;;;;;;;;;;7.60;99.90;;;;;;8412010;28;19935;-74
2024/01/27 16:42:46;;;;;;;;;;;7.50;99.90;;;;;;8432289;28;19930;-74
2024/01/27 16:46:48;;;;;;;;;;;7.40;99.90;;;;;;8427017;28;19947;-74
2024/01/27 16:50:49;;;;;;;;;;;7.20;99.90;;;;;;8427600;28;19932;-75
2024/01/27 16:54:51;;;;;;;;;;;7.10;99.90;;;;;;8433309;27;19927;-74
2024/01/27 16:58:53;;;;;;;;;;;7.00;99.90;;;;;;8428944;28;19924;-74
2024/01/27 17:02:54;;;;;;;;;;;7.00;99.90;;;;;;8431330;28;20000;-74
2024/01/27 17:06:56;;;;;;;;;;;6.90;99.90;;;;;;8432159;28;19984;-74
2024/01/27 17:10:58;;;;;;;;;;;6.80;99.90;;;;;;8411222;28;19932;-74
2024/01/27 17:15:00;;;;;;;;;;;6.70;99.90;;;;;;8428915;27;19955;-74
2024/01/27 17:19:02;;;;;;;;;;;6.60;99.90;;;;;;8409911;27;19932;-74
2024/01/27 17:23:04;;;;;;;;;;;6.50;99.90;;;;;;8422557;27;19932;-74
2024/01/27 17:27:05;;;;;;;;;;;6.40;99.90;;;;;;8429125;28;19924;-74
2024/01/27 17:31:09;;;;;;;;;;;6.30;99.90;;;;;;8433137;27;19927;-74
2024/01/27 17:35:11;;;;;;;;;;;6.30;99.90;;;;;;8432442;27;19924;-74
2024/01/27 17:39:14;;;;;;;;;;;6.20;99.90;;;;;;8443246;27;19924;-73
2024/01/27 17:43:15;;;;;;;;;;;6.10;99.90;;;;;;8431152;27;19932;-74
2024/01/27 17:47:17;;;;;;;;;;;6.00;99.90;;;;;;8418105;27;19967;-74
2024/01/27 17:51:19;;;;;;;;;;;5.90;99.90;;;;;;8429030;28;19935;-74
2024/01/27 18:00:30;;;;;;;;;;;5.70;99.90;;;;;;8425602;28;20802;-74
2024/01/27 18:04:32;;;;;;;;;;;5.70;99.90;;;;;;8412694;28;19947;-74
2024/01/27 18:08:34;;;;;;;;;;;5.60;99.90;;;;;;8453347;27;19984;-74
2024/01/27 18:12:36;;;;;;;;;;;5.50;99.90;;;;;;8434463;28;20017;-74
2024/01/27 18:21:39;;;;;;;;;;;5.30;99.90;;;;;;8427542;28;20634;-74
2024/01/27 18:25:41;;;;;;;;;;;5.20;99.90;;;;;;8426944;28;19966;-74
2024/01/27 18:29:43;;;;;;;;;;;5.10;99.90;;;;;;8417995;28;19948;-74
2024/01/27 18:33:48;;;;;;;;;;;5.00;99.90;;;;;;8422559;28;19924;-75
2024/01/27 18:37:50;;;;;;;;;;;4.90;99.90;;;;;;8429384;28;19981;-74
2024/01/27 18:41:52;;;;;;;;;;;4.90;99.90;;;;;;8427207;27;19932;-74
2024/01/27 18:45:56;;;;;;;;;;;4.80;99.90;;;;;;8430507;28;20256;-74
2024/01/27 18:55:01;;;;;;;;;;;4.60;99.90;;;;;;8430931;28;19919;-74
2024/01/27 18:59:03;;;;;;;;;;;4.50;99.90;;;;;;8410558;28;19967;-74
2024/01/27 19:03:06;;;;;;;;;;;4.50;99.90;;;;;;8426744;28;20069;-75
2024/01/27 19:07:08;;;;;;;;;;;4.50;99.90;;;;;;8420806;28;19923;-74
2024/01/27 19:11:10;;;;;;;;;;;4.40;99.90;;;;;;8414528;28;19944;-73
2024/01/27 19:15:12;;;;;;;;;;;4.40;99.90;;;;;;8425909;28;20283;-74
2024/01/27 19:19:26;;;;;;;;;;;4.30;99.90;;;;;;8409728;28;19986;-74
2024/01/27 19:23:48;;;;;;;;;;;4.20;99.90;;;;;;8424634;28;19928;-74
2024/01/27 19:27:49;;;;;;;;;;;4.20;99.90;;;;;;8424691;28;19958;-74
2024/01/27 19:31:51;;;;;;;;;;;4.20;99.90;;;;;;8412223;28;20007;-74
2024/01/27 19:35:53;;;;;;;;;;;4.20;99.90;;;;;;8430126;28;19924;-74
2024/01/27 19:39:55;;;;;;;;;;;4.20;99.90;;;;;;8423851;28;19924;-74
2024/01/27 19:43:57;;;;;;;;;;;4.20;99.90;;;;;;8429968;28;19932;-74
2024/01/27 19:47:58;;;;;;;;;;;4.20;99.90;;;;;;8431378;28;19928;-74
2024/01/27 19:52:00;;;;;;;;;;;4.10;99.90;;;;;;8431528;28;19928;-74
2024/01/27 19:56:05;;;;;;;;;;;4.00;99.90;;;;;;8430144;28;20428;-74
2024/01/27 20:00:08;;;;;;;;;;;3.90;99.90;;;;;;8429450;28;20264;-74
2024/01/27 20:04:09;;;;;;;;;;;3.80;99.90;;;;;;8425719;28;20011;-74
2024/01/27 20:08:11;;;;;;;;;;;3.80;99.90;;;;;;8436657;28;19924;-74
2024/01/27 20:12:13;;;;;;;;;;;3.80;99.90;;;;;;8417315;28;19935;-74
2024/01/27 20:16:15;;;;;;;;;;;3.80;99.90;;;;;;8415309;28;19977;-74
2024/01/27 20:20:17;;;;;;;;;;;3.80;99.90;;;;;;8433686;28;20260;-74
2024/01/27 20:24:19;;;;;;;;;;;3.80;99.90;;;;;;8426878;27;19935;-74
2024/01/27 20:28:21;;;;;;;;;;;3.70;99.90;;;;;;8410833;28;20375;-74
2024/01/27 20:32:23;;;;;;;;;;;3.60;99.90;;;;;;8414055;28;19930;-74
2024/01/27 20:36:37;;;;;;;;;;;3.50;99.90;;;;;;8432255;27;19985;-74
2024/01/27 20:40:39;;;;;;;;;;;3.40;99.90;;;;;;8432017;28;19928;-74
2024/01/27 20:44:41;;;;;;;;;;;3.40;99.90;;;;;;8425871;27;19939;-74
2024/01/27 20:48:43;;;;;;;;;;;3.30;99.90;;;;;;8432195;28;20421;-74
2024/01/27 20:52:45;;;;;;;;;;;3.30;99.90;;;;;;8415089;28;20367;-74
2024/01/27 20:56:47;;;;;;;;;;;3.30;99.90;;;;;;8432233;28;19959;-74
2024/01/27 21:00:49;;;;;;;;;;;3.30;99.90;;;;;;8426868;27;19986;-74
2024/01/27 21:04:51;;;;;;;;;;;3.20;99.90;;;;;;8429968;28;20377;-74
2024/01/27 21:08:52;;;;;;;;;;;3.10;99.90;;;;;;8428232;28;19925;-74
2024/01/27 21:12:54;;;;;;;;;;;3.10;99.90;;;;;;8414111;27;19924;-74
2024/01/27 21:16:56;;;;;;;;;;;3.00;99.90;;;;;;8422791;28;19924;-74
2024/01/27 21:20:58;;;;;;;;;;;3.00;99.90;;;;;;8408238;28;19928;-74
2024/01/27 21:25:00;;;;;;;;;;;2.90;99.90;;;;;;8435906;27;19927;-74
2024/01/27 21:34:05;;;;;;;;;;;2.70;99.90;;;;;;8432579;28;20480;-74
2024/01/27 21:38:07;;;;;;;;;;;2.70;99.90;;;;;;8432539;28;20355;-74
2024/01/27 21:42:09;;;;;;;;;;;2.70;99.90;;;;;;8426275;28;19931;-74
2024/01/27 21:46:11;;;;;;;;;;;2.60;99.90;;;;;;8427794;28;19931;-74
2024/01/27 21:50:13;;;;;;;;;;;2.60;99.90;;;;;;8423892;28;19924;-74
2024/01/27 21:54:15;;;;;;;;;;;2.50;99.90;;;;;;8432116;27;19924;-74
2024/01/27 21:58:16;;;;;;;;;;;2.50;99.90;;;;;;8412432;28;20460;-74
2024/01/27 22:02:18;;;;;;;;;;;2.40;99.90;;;;;;8427788;28;19924;-75
2024/01/27 22:11:23;;;;;;;;;;;2.40;99.90;;;;;;8456754;28;19919;-74
2024/01/27 22:25:34;;;;;;;;;;;2.30;99.90;;;;;;8452504;27;19923;-74
2024/01/27 22:29:36;;;;;;;;;;;2.30;99.90;;;;;;8454010;28;20378;-74
2024/01/27 22:33:37;;;;;;;;;;;2.30;99.90;;;;;;8457378;28;19927;-74
2024/01/27 22:37:39;;;;;;;;;;;2.30;99.90;;;;;;8456596;27;19923;-74
2024/01/27 22:41:41;;;;;;;;;;;2.20;99.90;;;;;;8457808;28;19946;-74
2024/01/27 22:45:43;;;;;;;;;;;2.20;99.90;;;;;;8456422;28;19941;-74
2024/01/27 22:49:45;;;;;;;;;;;2.20;99.90;;;;;;8437025;28;19934;-74
2024/01/27 22:53:46;;;;;;;;;;;2.20;99.90;;;;;;8439040;28;19928;-75
2024/01/27 22:57:48;;;;;;;;;;;2.10;99.90;;;;;;8452693;28;19928;-74
2024/01/27 23:01:50;;;;;;;;;;;2.10;99.90;;;;;;8456283;28;19931;-74
2024/01/27 23:05:53;;;;;;;;;;;2.10;99.90;;;;;;8436892;28;19931;-74
2024/01/27 23:09:55;;;;;;;;;;;2.00;99.90;;;;;;8452447;28;19928;-74
2024/01/27 23:13:57;;;;;;;;;;;2.00;99.90;;;;;;8438417;28;20364;-75
2024/01/27 23:18:00;;;;;;;;;;;2.00;99.90;;;;;;8453490;28;19962;-74
2024/01/27 23:22:02;;;;;;;;;;;2.10;99.90;;;;;;8438633;28;19976;-74
2024/01/27 23:26:03;;;;;;;;;;;2.20;99.90;;;;;;8455506;28;19932;-74
2024/01/27 23:30:07;;;;;;;;;;;2.30;99.90;;;;;;8448703;28;19946;-74
2024/01/27 23:34:10;;;;;;;;;;;2.30;99.90;;;;;;8456371;28;20263;-74
2024/01/27 23:38:12;;;;;;;;;;;2.40;99.90;;;;;;8434665;28;19962;-74
2024/01/27 23:42:13;;;;;;;;;;;2.30;99.90;;;;;;8456524;28;20371;-74
2024/01/27 23:46:15;;;;;;;;;;;2.30;99.90;;;;;;8456160;28;20013;-74
2024/01/27 23:50:18;;;;;;;;;;;2.30;99.90;;;;;;8450681;28;19934;-74
2024/01/27 23:54:20;;;;;;;;;;;2.30;99.90;;;;;;8455907;28;20299;-74
2024/01/27 23:58:22;;;;;;;;;;;2.20;99.90;;;;;;8430591;28;19928;-74
